createdAt,value
2022-10-12T00:01:23.852Z,13.70
2022-10-12T00:03:26.864Z,13.70
2022-10-12T00:05:28.514Z,13.70
2022-10-12T00:07:30.143Z,13.70
2022-10-12T00:09:31.798Z,13.70
2022-10-12T00:11:33.397Z,13.70
2022-10-12T00:13:35.056Z,13.70
2022-10-12T00:15:38.054Z,13.60
2022-10-12T00:17:40.065Z,13.60
2022-10-12T00:19:41.950Z,13.60
2022-10-12T00:21:43.584Z,13.60
2022-10-12T00:23:45.545Z,13.60
2022-10-12T00:25:47.172Z,13.60
2022-10-12T00:27:49.869Z,13.60
2022-10-12T00:29:51.458Z,13.50
2022-10-12T00:31:53.130Z,13.50
2022-10-12T00:33:54.952Z,13.40
2022-10-12T00:35:56.605Z,13.40
2022-10-12T00:37:58.272Z,13.20
2022-10-12T00:40:00.003Z,13.20
2022-10-12T00:42:01.709Z,13.20
2022-10-12T00:44:03.422Z,13.20
2022-10-12T00:46:06.983Z,13.20
2022-10-12T00:48:08.672Z,13.20
2022-10-12T00:50:36.771Z,13.10
2022-10-12T00:52:52.244Z,13.00
2022-10-12T00:54:54.350Z,13.00
2022-10-12T00:56:56.752Z,12.90
2022-10-12T00:59:02.693Z,12.90
2022-10-12T01:01:05.246Z,12.80
2022-10-12T01:03:08.066Z,12.90
2022-10-12T01:05:10.936Z,12.80
2022-10-12T01:07:12.769Z,12.80
2022-10-12T01:09:14.703Z,12.90
2022-10-12T01:11:16.263Z,12.90
2022-10-12T01:13:18.476Z,13.00
2022-10-12T01:15:20.081Z,13.00
2022-10-12T01:17:24.727Z,13.00
2022-10-12T01:19:32.411Z,13.00
2022-10-12T01:21:37.649Z,12.90
2022-10-12T01:23:56.038Z,12.90
2022-10-12T01:26:16.520Z,13.00
2022-10-12T01:28:33.448Z,12.90
2022-10-12T01:30:37.364Z,12.80
2022-10-12T01:32:39.018Z,12.80
2022-10-12T01:34:49.912Z,12.80
2022-10-12T01:37:01.249Z,12.80
2022-10-12T01:39:10.697Z,12.90
2022-10-12T01:41:16.597Z,12.90
2022-10-12T01:43:20.399Z,12.80
2022-10-12T01:45:22.030Z,12.80
2022-10-12T01:47:23.600Z,12.80
2022-10-12T01:49:27.231Z,12.80
2022-10-12T01:51:31.805Z,12.80
2022-10-12T01:53:33.335Z,12.80
2022-10-12T01:55:44.119Z,12.80
2022-10-12T01:57:45.672Z,12.80
2022-10-12T01:59:47.207Z,12.70
2022-10-12T02:01:57.663Z,12.70
2022-10-12T02:04:06.039Z,12.70
2022-10-12T02:06:09.092Z,12.60
2022-10-12T02:08:19.812Z,12.50
2022-10-12T02:10:24.017Z,12.50
2022-10-12T02:12:26.954Z,12.50
2022-10-12T02:14:34.873Z,12.50
2022-10-12T02:16:47.331Z,12.50
2022-10-12T02:18:50.636Z,12.40
2022-10-12T02:20:53.739Z,12.20
2022-10-12T02:22:55.497Z,12.20
2022-10-12T02:24:59.240Z,12.20
2022-10-12T02:27:01.329Z,12.10
2022-10-12T02:29:03.830Z,12.10
2022-10-12T02:31:08.415Z,12.20
2022-10-12T02:33:12.990Z,12.20
2022-10-12T02:35:29.986Z,12.20
2022-10-12T02:37:36.987Z,12.10
2022-10-12T02:39:44.157Z,12.10
2022-10-12T02:41:50.774Z,12.00
2022-10-12T02:43:54.884Z,12.00
2022-10-12T02:45:56.846Z,12.00
2022-10-12T02:47:59.234Z,12.10
2022-10-12T02:50:01.229Z,12.00
2022-10-12T02:52:03.918Z,11.90
2022-10-12T02:54:05.540Z,11.90
2022-10-12T02:56:10.390Z,11.80
2022-10-12T02:58:11.955Z,11.80
2022-10-12T03:00:13.751Z,11.70
2022-10-12T03:02:15.368Z,11.80
2022-10-12T03:04:16.996Z,11.80
2022-10-12T03:06:20.137Z,11.80
2022-10-12T03:08:21.787Z,11.80
2022-10-12T03:10:23.417Z,11.70
2022-10-12T03:12:25.004Z,11.60
2022-10-12T03:14:27.471Z,11.50
2022-10-12T03:16:29.181Z,11.50
2022-10-12T03:18:31.078Z,11.50
2022-10-12T03:20:32.688Z,11.70
2022-10-12T03:22:34.337Z,11.90
2022-10-12T03:24:35.922Z,11.80
2022-10-12T03:26:37.640Z,11.60
2022-10-12T03:28:39.274Z,11.60
2022-10-12T03:30:42.012Z,11.70
2022-10-12T03:32:43.666Z,11.90
2022-10-12T03:34:45.269Z,12.00
2022-10-12T03:36:46.915Z,11.90
2022-10-12T03:38:48.511Z,11.90
2022-10-12T03:40:50.200Z,11.90
2022-10-12T03:42:51.793Z,12.00
2022-10-12T03:44:53.389Z,12.00
2022-10-12T03:46:58.067Z,12.00
2022-10-12T03:48:59.705Z,12.10
2022-10-12T03:51:01.389Z,12.20
2022-10-12T03:53:03.735Z,12.20
2022-10-12T03:55:05.590Z,12.20
2022-10-12T03:57:07.225Z,12.20
2022-10-12T03:59:08.857Z,12.30
2022-10-12T04:01:10.573Z,12.30
2022-10-12T04:03:12.183Z,12.40
2022-10-12T04:05:13.850Z,12.40
2022-10-12T04:07:15.437Z,12.30
2022-10-12T04:09:17.078Z,12.20
2022-10-12T04:11:20.245Z,12.20
2022-10-12T04:13:21.955Z,12.30
2022-10-12T04:15:23.713Z,12.30
2022-10-12T04:17:25.421Z,12.30
2022-10-12T04:19:27.022Z,12.40
2022-10-12T04:21:30.773Z,12.40
2022-10-12T04:23:32.708Z,12.40
2022-10-12T04:25:34.264Z,12.40
2022-10-12T04:27:36.136Z,12.50
2022-10-12T04:29:38.225Z,12.40
2022-10-12T04:31:40.240Z,12.40
2022-10-12T04:33:41.849Z,12.40
2022-10-12T04:35:43.444Z,12.40
2022-10-12T04:37:45.082Z,12.40
2022-10-12T04:39:46.752Z,12.40
2022-10-12T04:41:48.349Z,12.40
2022-10-12T04:43:52.307Z,12.50
2022-10-12T04:45:54.676Z,12.50
2022-10-12T04:47:56.266Z,12.50
2022-10-12T04:49:57.864Z,12.60
2022-10-12T04:51:59.516Z,12.60
2022-10-12T04:54:01.114Z,12.60
2022-10-12T04:56:04.251Z,12.60
2022-10-12T04:58:14.611Z,12.60
2022-10-12T05:00:16.833Z,12.70
2022-10-12T05:02:18.438Z,12.60
2022-10-12T05:04:20.101Z,12.60
2022-10-12T05:06:21.760Z,12.60
2022-10-12T05:08:23.402Z,12.60
2022-10-12T05:10:25.032Z,12.70
2022-10-12T05:12:26.644Z,12.70
2022-10-12T05:14:32.253Z,12.70
2022-10-12T05:16:37.780Z,12.70
2022-10-12T05:18:39.598Z,12.70
2022-10-12T05:20:41.186Z,12.70
2022-10-12T05:22:42.752Z,12.70
2022-10-12T05:24:44.400Z,12.60
2022-10-12T05:26:46.090Z,12.70
2022-10-12T05:28:47.761Z,12.60
2022-10-12T05:30:50.644Z,12.60
2022-10-12T05:32:52.247Z,12.60
2022-10-12T05:34:55.064Z,12.70
2022-10-12T05:36:58.270Z,12.70
2022-10-12T05:39:00.009Z,12.70
2022-10-12T05:41:01.756Z,12.70
2022-10-12T05:43:03.459Z,12.70
2022-10-12T05:45:05.600Z,12.80
2022-10-12T05:47:07.470Z,12.80
2022-10-12T05:49:09.137Z,12.80
2022-10-12T05:51:10.912Z,12.80
2022-10-12T05:53:12.586Z,12.70
2022-10-12T05:55:14.488Z,12.70
2022-10-12T05:57:16.407Z,12.70
2022-10-12T05:59:18.011Z,12.70
2022-10-12T06:01:19.658Z,12.80
2022-10-12T06:03:25.787Z,12.80
2022-10-12T06:05:28.102Z,12.80
2022-10-12T06:07:29.753Z,12.80
2022-10-12T06:09:31.532Z,12.80
2022-10-12T06:11:53.408Z,12.80
2022-10-12T06:13:55.129Z,12.80
2022-10-12T06:15:56.702Z,12.80
2022-10-12T06:17:58.431Z,12.80
2022-10-12T06:20:00.088Z,12.80
2022-10-12T06:22:01.785Z,12.80
2022-10-12T06:24:03.540Z,12.80
2022-10-12T06:26:05.224Z,12.80
2022-10-12T06:28:06.844Z,12.90
2022-10-12T06:30:08.638Z,12.90
2022-10-12T06:32:10.259Z,13.00
2022-10-12T06:34:15.142Z,13.00
2022-10-12T06:36:17.028Z,13.00
2022-10-12T06:38:18.789Z,13.00
2022-10-12T06:40:20.566Z,13.10
2022-10-12T06:42:22.220Z,13.00
2022-10-12T06:44:23.890Z,13.10
2022-10-12T06:46:25.616Z,13.20
2022-10-12T06:48:27.282Z,13.20
2022-10-12T06:50:28.942Z,13.20
2022-10-12T06:52:31.579Z,13.30
2022-10-12T06:54:33.210Z,13.30
2022-10-12T06:56:35.091Z,13.40
2022-10-12T06:58:37.077Z,13.40
2022-10-12T07:00:38.863Z,13.40
2022-10-12T07:02:41.596Z,13.40
2022-10-12T07:04:43.366Z,13.50
2022-10-12T07:06:45.024Z,13.50
2022-10-12T07:08:48.897Z,13.60
2022-10-12T07:10:50.562Z,13.60
2022-10-12T07:12:52.252Z,13.60
2022-10-12T07:14:54.925Z,13.60
2022-10-12T07:16:56.564Z,13.70
2022-10-12T07:18:58.159Z,13.70
2022-10-12T07:20:59.938Z,13.60
2022-10-12T07:23:01.623Z,13.60
2022-10-12T07:25:03.390Z,13.70
2022-10-12T07:27:07.545Z,13.70
2022-10-12T07:29:09.266Z,13.70
2022-10-12T07:31:10.926Z,13.60
2022-10-12T07:33:12.621Z,13.60
2022-10-12T07:35:14.221Z,13.70
2022-10-12T07:37:15.970Z,13.80
2022-10-12T07:39:18.878Z,13.80
2022-10-12T07:41:21.651Z,13.90
2022-10-12T07:43:23.441Z,13.90
2022-10-12T07:45:25.811Z,13.90
2022-10-12T07:47:27.734Z,14.10
2022-10-12T07:49:30.795Z,14.20
2022-10-12T07:51:32.997Z,14.20
2022-10-12T07:53:35.369Z,14.20
2022-10-12T07:55:37.330Z,14.30
2022-10-12T07:57:39.428Z,14.20
2022-10-12T07:59:41.696Z,14.20
2022-10-12T08:01:43.510Z,14.20
2022-10-12T08:03:45.488Z,14.20
2022-10-12T08:05:47.191Z,14.20
2022-10-12T08:07:49.975Z,14.30
2022-10-12T08:09:51.664Z,14.30
2022-10-12T08:11:53.587Z,14.40
2022-10-12T08:13:56.132Z,14.40
2022-10-12T08:15:57.874Z,14.50
2022-10-12T08:17:59.628Z,14.60
2022-10-12T08:20:01.261Z,14.80
2022-10-12T08:22:03.026Z,14.80
2022-10-12T08:24:04.925Z,14.80
2022-10-12T08:26:07.150Z,14.80
2022-10-12T08:28:09.063Z,14.80
2022-10-12T08:30:11.033Z,14.80
2022-10-12T08:32:12.853Z,14.80
2022-10-12T08:34:14.462Z,14.80
2022-10-12T08:36:16.241Z,14.90
2022-10-12T08:38:17.971Z,15.00
2022-10-12T08:40:25.946Z,15.10
2022-10-12T08:42:46.393Z,15.10
2022-10-12T08:44:48.063Z,15.20
2022-10-12T08:46:55.168Z,15.20
2022-10-12T08:49:00.526Z,15.30
2022-10-12T08:51:04.164Z,15.40
2022-10-12T08:53:19.280Z,15.50
2022-10-12T08:55:24.176Z,15.40
2022-10-12T08:57:25.913Z,15.50
2022-10-12T08:59:28.411Z,15.60
2022-10-12T09:01:36.888Z,15.70
2022-10-12T09:03:38.690Z,15.70
2022-10-12T09:05:55.782Z,15.70
2022-10-12T09:08:01.238Z,15.70
2022-10-12T09:10:02.922Z,15.60
2022-10-12T09:12:16.460Z,15.70
2022-10-12T09:14:21.704Z,15.70
2022-10-12T09:16:25.354Z,15.80
2022-10-12T09:18:37.111Z,15.70
2022-10-12T09:20:52.455Z,15.70
2022-10-12T09:22:56.510Z,15.70
2022-10-12T09:24:59.323Z,15.70
2022-10-12T09:27:08.017Z,15.70
2022-10-12T09:29:24.259Z,15.80
2022-10-12T09:31:28.690Z,15.80
2022-10-12T09:33:34.882Z,15.90
2022-10-12T09:35:36.920Z,15.90
2022-10-12T09:37:39.263Z,15.90
2022-10-12T09:39:40.999Z,15.90
2022-10-12T09:41:45.524Z,16.00
2022-10-12T09:43:49.601Z,16.00
2022-10-12T09:45:51.773Z,16.00
2022-10-12T09:48:12.572Z,16.00
2022-10-12T09:50:34.256Z,16.00
2022-10-12T09:52:36.981Z,16.10
2022-10-12T09:54:40.458Z,16.10
2022-10-12T09:56:47.208Z,16.00
2022-10-12T09:59:02.205Z,16.10
2022-10-12T10:01:16.612Z,16.00
2022-10-12T10:03:29.148Z,16.10
2022-10-12T10:05:34.523Z,16.10
2022-10-12T10:07:36.396Z,16.10
2022-10-12T10:09:38.073Z,16.00
2022-10-12T10:11:40.099Z,16.00
2022-10-12T10:13:46.696Z,16.10
2022-10-12T10:15:49.810Z,16.00
2022-10-12T10:17:54.057Z,16.00
2022-10-12T10:19:56.891Z,16.00
2022-10-12T10:22:04.710Z,16.00
2022-10-12T10:24:17.216Z,16.10
2022-10-12T10:26:20.381Z,16.10
2022-10-12T10:28:27.880Z,16.10
2022-10-12T10:30:33.777Z,16.00
2022-10-12T10:32:38.176Z,16.00
2022-10-12T10:34:42.839Z,16.10
2022-10-12T10:36:45.868Z,16.10
2022-10-12T10:38:54.188Z,16.20
2022-10-12T10:40:57.097Z,16.10
2022-10-12T10:43:17.406Z,16.10
2022-10-12T10:45:24.345Z,16.20
2022-10-12T10:47:26.494Z,16.30
2022-10-12T10:49:39.941Z,16.40
2022-10-12T10:51:57.133Z,16.40
2022-10-12T10:54:15.056Z,16.40
2022-10-12T10:56:21.798Z,16.40
2022-10-12T10:58:32.480Z,16.40
2022-10-12T11:00:39.521Z,16.40
2022-10-12T11:02:51.311Z,16.40
2022-10-12T11:05:10.835Z,16.40
2022-10-12T11:07:27.976Z,16.50
2022-10-12T11:09:34.696Z,16.60
2022-10-12T11:11:36.807Z,16.60
2022-10-12T11:13:41.552Z,16.60
2022-10-12T11:15:43.121Z,16.70
2022-10-12T11:17:47.462Z,16.90
2022-10-12T11:19:58.350Z,17.00
2022-10-12T11:22:23.406Z,17.00
2022-10-12T11:24:46.930Z,17.10
2022-10-12T11:26:52.110Z,17.20
2022-10-12T11:28:55.641Z,17.20
2022-10-12T11:30:57.517Z,17.30
2022-10-12T11:33:01.928Z,17.30
2022-10-12T11:35:05.581Z,17.10
2022-10-12T11:37:19.693Z,17.10
2022-10-12T11:39:54.624Z,16.90
2022-10-12T11:42:20.458Z,17.10
2022-10-12T11:44:21.124Z,17.30
2022-10-12T11:46:33.602Z,17.30
2022-10-12T11:48:39.793Z,17.20
2022-10-12T11:50:42.812Z,17.10
2022-10-12T11:52:46.985Z,17.00
2022-10-12T11:54:48.681Z,17.00
2022-10-12T11:56:52.003Z,17.10
2022-10-12T11:59:01.199Z,17.10
2022-10-12T12:01:10.891Z,17.10
2022-10-12T12:03:28.312Z,16.90
2022-10-12T12:05:33.215Z,16.90
2022-10-12T12:07:37.626Z,17.00
2022-10-12T12:09:44.150Z,17.20
2022-10-12T12:11:48.344Z,17.20
2022-10-12T12:13:50.117Z,17.10
2022-10-12T12:15:52.145Z,16.80
2022-10-12T12:18:14.400Z,16.80
2022-10-12T12:20:37.656Z,16.60
2022-10-12T12:22:54.552Z,16.70
2022-10-12T12:24:56.194Z,16.60
2022-10-12T12:26:57.924Z,16.80
2022-10-12T12:29:10.548Z,16.90
2022-10-12T12:31:15.335Z,17.10
2022-10-12T12:33:17.806Z,17.30
2022-10-12T12:35:19.499Z,17.10
2022-10-12T12:37:22.204Z,17.20
2022-10-12T12:39:26.951Z,17.10
2022-10-12T12:41:47.562Z,17.10
2022-10-12T12:43:56.283Z,17.20
2022-10-12T12:45:58.187Z,17.20
2022-10-12T12:47:59.797Z,17.30
2022-10-12T12:50:02.332Z,17.20
2022-10-12T12:52:10.850Z,17.10
2022-10-12T12:54:15.667Z,17.10
2022-10-12T12:56:29.916Z,17.20
2022-10-12T12:58:37.849Z,17.40
2022-10-12T13:00:45.197Z,17.40
2022-10-12T13:02:53.624Z,17.30
2022-10-12T13:04:58.136Z,17.30
2022-10-12T13:07:02.835Z,17.50
2022-10-12T13:09:07.503Z,17.50
2022-10-12T13:11:11.846Z,17.80
2022-10-12T13:13:19.573Z,18.10
2022-10-12T13:15:25.879Z,17.90
2022-10-12T13:17:33.077Z,18.00
2022-10-12T13:19:36.006Z,18.20
2022-10-12T13:21:42.001Z,18.40
2022-10-12T13:23:44.977Z,18.20
2022-10-12T13:25:48.319Z,18.40
2022-10-12T13:27:50.752Z,18.90
2022-10-12T13:29:58.030Z,19.60
2022-10-12T13:32:00.939Z,20.70
2022-10-12T13:34:10.309Z,21.40
2022-10-12T13:36:23.618Z,21.80
2022-10-12T13:38:26.583Z,21.00
2022-10-12T13:40:33.072Z,21.50
2022-10-12T13:42:36.008Z,22.00
2022-10-12T13:44:37.787Z,22.20
2022-10-12T13:46:39.351Z,22.10
2022-10-12T13:48:59.485Z,22.00
2022-10-12T13:51:03.105Z,22.30
2022-10-12T13:53:14.463Z,21.60
2022-10-12T13:55:16.717Z,21.80
2022-10-12T13:57:29.899Z,22.00
2022-10-12T13:59:36.590Z,21.90
2022-10-12T14:01:48.184Z,21.40
2022-10-12T14:03:50.177Z,22.50
2022-10-12T14:05:56.280Z,22.50
2022-10-12T14:08:00.185Z,22.50
2022-10-12T14:10:07.369Z,23.30
2022-10-12T14:12:10.023Z,24.70
2022-10-12T14:14:27.340Z,22.00
2022-10-12T14:16:29.100Z,21.70
2022-10-12T14:18:32.516Z,21.60
2022-10-12T14:20:37.394Z,21.40
2022-10-12T14:22:39.154Z,22.90
2022-10-12T14:24:40.933Z,23.60
2022-10-12T14:26:43.611Z,22.70
2022-10-12T14:28:45.317Z,22.00
2022-10-12T14:30:51.146Z,21.50
2022-10-12T14:32:58.653Z,21.10
2022-10-12T14:35:10.769Z,20.90
2022-10-12T14:37:15.557Z,20.60
2022-10-12T14:39:18.832Z,20.70
2022-10-12T14:41:35.878Z,20.80
2022-10-12T14:43:37.556Z,20.60
2022-10-12T14:45:39.420Z,20.50
2022-10-12T14:47:43.084Z,20.50
2022-10-12T14:49:46.048Z,21.00
2022-10-12T14:51:48.350Z,20.60
2022-10-12T14:54:00.275Z,21.40
2022-10-12T14:56:01.980Z,21.90
2022-10-12T14:58:08.052Z,22.10
2022-10-12T15:00:13.181Z,23.00
2022-10-12T15:02:19.454Z,23.80
2022-10-12T15:04:21.085Z,23.40
2022-10-12T15:06:22.994Z,22.50
2022-10-12T15:08:24.875Z,21.60
2022-10-12T15:10:27.550Z,21.40
2022-10-12T15:12:30.547Z,21.40
2022-10-12T15:14:32.782Z,21.60
2022-10-12T15:16:34.720Z,21.10
2022-10-12T15:18:36.674Z,21.20
2022-10-12T15:20:45.423Z,21.40
2022-10-12T15:22:50.151Z,21.80
2022-10-12T15:24:52.811Z,21.80
2022-10-12T15:26:54.824Z,21.60
2022-10-12T15:28:56.907Z,22.30
2022-10-12T15:33:23.427Z,22.20
2022-10-12T15:35:26.382Z,21.20
2022-10-12T15:37:31.371Z,21.40
2022-10-12T15:39:33.288Z,21.20
2022-10-12T15:41:35.126Z,21.20
2022-10-12T15:43:39.591Z,21.10
2022-10-12T15:45:43.779Z,21.10
2022-10-12T15:47:46.793Z,20.50
2022-10-12T15:49:48.802Z,20.10
2022-10-12T15:51:52.391Z,19.90
2022-10-12T15:53:55.133Z,19.80
2022-10-12T15:55:57.150Z,19.30
2022-10-12T15:57:59.609Z,19.40
2022-10-12T16:00:01.290Z,19.50
2022-10-12T16:02:03.089Z,19.30
2022-10-12T16:04:05.532Z,19.10
2022-10-12T16:06:07.361Z,18.80
2022-10-12T16:08:08.979Z,18.40
2022-10-12T16:10:14.004Z,18.10
2022-10-12T16:12:15.665Z,18.00
2022-10-12T16:14:17.366Z,17.60
2022-10-12T16:16:19.363Z,17.40
2022-10-12T16:18:21.057Z,17.20
2022-10-12T16:20:22.863Z,17.10
2022-10-12T16:22:24.498Z,17.10
2022-10-12T16:24:26.228Z,17.00
2022-10-12T16:26:27.951Z,16.80
2022-10-12T16:28:29.846Z,16.70
2022-10-12T16:30:32.104Z,16.50
2022-10-12T16:32:33.740Z,16.40
2022-10-12T16:34:35.371Z,16.30
2022-10-12T16:36:36.973Z,16.10
2022-10-12T16:38:38.596Z,16.00
2022-10-12T16:40:40.835Z,16.00
2022-10-12T16:42:44.787Z,15.90
2022-10-12T16:44:46.462Z,15.90
2022-10-12T16:46:48.121Z,15.80
2022-10-12T16:48:49.733Z,15.80
2022-10-12T16:50:51.375Z,15.70
2022-10-12T16:52:53.050Z,15.60
2022-10-12T16:54:54.984Z,15.40
2022-10-12T16:56:56.964Z,15.20
2022-10-12T16:58:58.676Z,15.10
2022-10-12T17:01:13.156Z,15.10
2022-10-12T17:03:14.820Z,15.00
2022-10-12T17:05:16.459Z,15.10
2022-10-12T17:07:18.322Z,15.00
2022-10-12T17:09:20.306Z,15.10
2022-10-12T17:11:21.986Z,14.90
2022-10-12T17:13:23.629Z,14.90
2022-10-12T17:15:25.222Z,15.00
2022-10-12T17:17:30.032Z,14.80
2022-10-12T17:19:37.358Z,14.80
2022-10-12T17:21:43.567Z,14.70
2022-10-12T17:23:45.455Z,14.70
2022-10-12T17:25:47.870Z,14.60
2022-10-12T17:27:49.520Z,14.60
2022-10-12T17:29:52.467Z,14.50
2022-10-12T17:31:54.974Z,14.50
2022-10-12T17:33:57.343Z,14.50
2022-10-12T17:35:58.984Z,14.50
2022-10-12T17:38:00.600Z,14.50
2022-10-12T17:40:02.426Z,14.40
2022-10-12T17:42:04.469Z,14.20
2022-10-12T17:44:06.134Z,14.20
2022-10-12T17:46:07.795Z,14.20
2022-10-12T17:48:09.656Z,14.10
2022-10-12T17:50:11.627Z,14.00
2022-10-12T17:52:13.232Z,14.00
2022-10-12T17:54:15.590Z,13.90
2022-10-12T17:56:17.454Z,14.00
2022-10-12T17:58:19.112Z,13.90
2022-10-12T18:00:21.169Z,13.90
2022-10-12T18:02:22.824Z,13.80
2022-10-12T18:04:24.666Z,13.90
2022-10-12T18:06:26.543Z,13.80
2022-10-12T18:08:28.201Z,13.80
2022-10-12T18:10:29.820Z,13.80
2022-10-12T18:12:31.390Z,13.70
2022-10-12T18:14:32.985Z,13.70
2022-10-12T18:16:34.782Z,13.70
2022-10-12T18:18:36.930Z,13.60
2022-10-12T18:20:40.335Z,13.50
2022-10-12T18:22:41.917Z,13.50
2022-10-12T18:24:43.690Z,13.50
2022-10-12T18:26:46.208Z,13.40
2022-10-12T18:28:51.985Z,13.50
2022-10-12T18:30:53.677Z,13.40
2022-10-12T18:32:55.873Z,13.40
2022-10-12T18:34:57.765Z,13.30
2022-10-12T18:36:59.565Z,13.30
2022-10-12T18:39:02.046Z,13.30
2022-10-12T18:41:04.888Z,13.30
2022-10-12T18:43:06.541Z,13.30
2022-10-12T18:45:08.329Z,13.30
2022-10-12T18:47:09.995Z,13.20
2022-10-12T18:49:11.703Z,13.20
2022-10-12T18:51:24.971Z,13.10
2022-10-12T18:53:28.087Z,13.10
2022-10-12T18:55:29.725Z,13.10
2022-10-12T18:57:33.561Z,13.20
2022-10-12T18:59:40.380Z,13.10
2022-10-12T19:01:42.283Z,13.10
2022-10-12T19:03:44.343Z,13.00
2022-10-12T19:05:45.994Z,12.90
2022-10-12T19:07:48.922Z,12.90
2022-10-12T19:09:50.860Z,12.80
2022-10-12T19:11:52.527Z,12.80
2022-10-12T19:13:55.933Z,12.80
2022-10-12T19:15:57.566Z,12.80
2022-10-12T19:17:59.220Z,12.80
2022-10-12T19:20:02.878Z,12.80
2022-10-12T19:22:05.812Z,12.90
2022-10-12T19:24:09.000Z,12.90
2022-10-12T19:26:12.385Z,12.80
2022-10-12T19:28:14.175Z,12.70
2022-10-12T19:30:16.998Z,12.60
2022-10-12T19:32:18.893Z,12.60
2022-10-12T19:34:21.595Z,12.50
2022-10-12T19:36:23.751Z,12.50
2022-10-12T19:38:25.482Z,12.60
2022-10-12T19:40:28.326Z,12.50
2022-10-12T19:42:32.387Z,12.50
2022-10-12T19:44:37.055Z,12.40
2022-10-12T19:46:39.609Z,12.40
2022-10-12T19:48:44.948Z,12.40
2022-10-12T19:50:46.776Z,12.40
2022-10-12T19:52:51.520Z,12.30
2022-10-12T19:54:53.149Z,12.20
2022-10-12T19:56:54.871Z,12.40
2022-10-12T19:58:57.662Z,12.40
2022-10-12T20:01:02.974Z,12.40
2022-10-12T20:03:04.935Z,12.20
2022-10-12T20:05:06.720Z,12.20
2022-10-12T20:07:08.566Z,12.10
2022-10-12T20:09:11.462Z,12.00
2022-10-12T20:11:17.954Z,12.10
2022-10-12T20:13:20.674Z,12.10
2022-10-12T20:15:22.306Z,12.10
2022-10-12T20:17:23.947Z,12.20
2022-10-12T20:19:25.572Z,12.20
2022-10-12T20:21:27.795Z,12.20
2022-10-12T20:23:29.483Z,12.10
2022-10-12T20:25:31.127Z,12.00
2022-10-12T20:27:33.646Z,12.00
2022-10-12T20:29:35.387Z,11.90
2022-10-12T20:31:37.228Z,11.90
2022-10-12T20:33:39.341Z,11.90
2022-10-12T20:35:49.821Z,12.00
2022-10-12T20:37:51.465Z,12.00
2022-10-12T20:39:53.461Z,12.00
2022-10-12T20:41:56.062Z,12.00
2022-10-12T20:43:59.068Z,11.90
2022-10-12T20:46:04.990Z,11.90
2022-10-12T20:48:07.483Z,11.80
2022-10-12T20:50:09.239Z,11.80
2022-10-12T20:52:10.983Z,11.80
2022-10-12T20:54:14.784Z,11.80
2022-10-12T20:56:16.429Z,11.80
2022-10-12T20:58:18.059Z,11.80
2022-10-12T21:00:19.835Z,11.80
2022-10-12T21:02:21.661Z,11.80
2022-10-12T21:04:25.286Z,11.90
2022-10-12T21:06:28.606Z,11.90
2022-10-12T21:08:33.321Z,11.90
2022-10-12T21:10:40.036Z,11.80
2022-10-12T21:12:42.013Z,11.70
2022-10-12T21:14:43.867Z,11.70
2022-10-12T21:16:48.495Z,11.60
2022-10-12T21:18:53.325Z,11.70
2022-10-12T21:20:55.310Z,11.60
2022-10-12T21:22:59.019Z,11.50
2022-10-12T21:25:00.846Z,11.60
2022-10-12T21:27:02.575Z,11.60
2022-10-12T21:29:04.583Z,11.50
2022-10-12T21:31:06.557Z,11.40
2022-10-12T21:33:09.320Z,11.40
2022-10-12T21:35:10.931Z,11.40
2022-10-12T21:37:12.569Z,11.40
2022-10-12T21:39:15.408Z,11.40
2022-10-12T21:41:18.204Z,11.30
2022-10-12T21:43:19.791Z,11.30
2022-10-12T21:45:23.283Z,11.30
2022-10-12T21:47:25.178Z,11.30
2022-10-12T21:49:26.904Z,11.30
2022-10-12T21:51:29.155Z,11.30
2022-10-12T21:53:31.243Z,11.30
2022-10-12T21:55:33.252Z,11.20
2022-10-12T21:57:35.485Z,11.10
2022-10-12T21:59:37.435Z,11.20
2022-10-12T22:01:40.288Z,11.30
2022-10-12T22:03:42.267Z,11.20
2022-10-12T22:05:44.655Z,11.30
2022-10-12T22:07:46.285Z,11.30
2022-10-12T22:09:49.699Z,11.20
2022-10-12T22:11:51.292Z,11.20
2022-10-12T22:14:03.130Z,11.20
2022-10-12T22:16:06.524Z,11.10
2022-10-12T22:18:08.175Z,11.20
2022-10-12T22:20:10.204Z,11.10
2022-10-12T22:22:11.857Z,11.00
2022-10-12T22:24:13.525Z,11.00
2022-10-12T22:26:17.749Z,11.00
2022-10-12T22:28:19.369Z,10.90
2022-10-12T22:30:21.340Z,11.00
2022-10-12T22:32:23.123Z,10.90
2022-10-12T22:34:24.834Z,10.80
2022-10-12T22:36:26.797Z,10.80
2022-10-12T22:38:28.686Z,10.70
2022-10-12T22:40:30.339Z,10.80
2022-10-12T22:42:32.028Z,10.70
2022-10-12T22:44:33.587Z,10.70
2022-10-12T22:46:35.173Z,10.60
2022-10-12T22:48:37.474Z,10.70
2022-10-12T22:50:39.068Z,10.60
2022-10-12T22:52:40.702Z,10.80
2022-10-12T22:54:42.395Z,10.80
2022-10-12T22:56:44.063Z,10.70
2022-10-12T22:58:53.004Z,10.70
2022-10-12T23:01:02.016Z,10.70
2022-10-12T23:03:03.699Z,10.70
2022-10-12T23:05:05.728Z,10.70
2022-10-12T23:07:07.386Z,10.70
2022-10-12T23:09:09.103Z,10.60
2022-10-12T23:11:12.466Z,10.60
2022-10-12T23:13:14.102Z,10.50
2022-10-12T23:15:15.743Z,10.40
2022-10-12T23:17:17.455Z,10.30
2022-10-12T23:19:19.068Z,10.30
2022-10-12T23:21:20.730Z,10.40
2022-10-12T23:23:22.328Z,10.40
2022-10-12T23:25:23.881Z,10.50
2022-10-12T23:27:25.492Z,10.40
2022-10-12T23:29:27.174Z,10.40
2022-10-12T23:31:29.499Z,10.40
2022-10-12T23:33:31.248Z,10.40
2022-10-12T23:35:33.193Z,10.30
2022-10-12T23:37:34.759Z,10.20
2022-10-12T23:39:36.799Z,10.30
2022-10-12T23:41:44.667Z,10.30
2022-10-12T23:43:46.396Z,10.30
2022-10-12T23:45:48.181Z,10.30
2022-10-12T23:47:49.751Z,10.30
2022-10-12T23:49:51.390Z,10.30
2022-10-12T23:51:53.023Z,10.20
2022-10-12T23:53:54.649Z,10.20
2022-10-12T23:55:56.322Z,10.20
2022-10-12T23:58:03.736Z,10.20
